Algona, WA

7:17 AM PDT on October 01, 2014 (GMT -0700)
Celery Ave | Change Station
CLOSE
Current Station
Personal Weather Station
Location: Algona, WA
Elevation: 66 ft
Nearby Weather Stations

Elev 66 ft 47.29 °N, 122.25 °W | Updated 11 minutes ago

Mostly Cloudy
Mostly Cloudy
49.7 °F
Feels Like 50 °F
N
0.0
Wind Variable Wind from South
Gusts 0.0 mph

Today
High -- | Low -- °F
--% Chance of Precip.
Yesterday
High -- | Low -- °F
Precip. -- in
7:08 AM 6:48 PM
Waxing Crescent, 48% visible
Pressure 30.22 in
Visibility 8.0 miles
Clouds Scattered Clouds 800 ft
Mostly Cloudy 1200 ft
Overcast 3700 ft
Windchill 50 °F
Dew Point 48 °F
Humidity 92%
Rainfall 0.00 in
Snow Depth 0 in , 0 in , 0 in
UV 0 out of 12
Pollen 1.10 out of 12
Air Quality Not available.
Flu Activity Not available.
SPECI KSEA 011411Z 19004KT 8SM SCT008 BKN012 OVC037 12/10 A3022 RMK AO2

More Conditions Fewer Conditions

Pressure 30.22 in
Visibility 8.0 miles
Clouds Scattered Clouds 800 ft
Mostly Cloudy 1200 ft
Overcast 3700 ft
Windchill 50 °F
Dew Point 48 °F
Humidity 92%
Rainfall 0.00 in
Snow Depth 0 in , 0 in , 0 in
UV 0 out of 12
Pollen 1.10 out of 12
Air Quality Not available.
Flu Activity Not available.
SPECI KSEA 011411Z 19004KT 8SM SCT008 BKN012 OVC037 12/10 A3022 RMK AO2

More Conditions Fewer Conditions

10-Day Weather Forecast

Almanac

Astronomy

Oct. 01, 2014 Rise Set
Actual Time 7:08 AM PDT 6:48 PM PDT
Civil Twilight 6:37 AM PDT 7:18 PM PDT
Nautical Twilight 6:02 AM PDT 7:54 PM PDT
Astronomical Twilight 5:25 AM PDT 8:30 PM PDT
Moon 2:30 PM PDT No Moon Set
Length of Visible Light 12h 41m
Length of Day
11h 40m
Tomorrow will be 3m 22s shorter.
Waxing Crescent, 48% of the Moon is Illuminated
Today
Waxing Crescent
Oct 1
First Quarter
Oct 8
Full
Oct 15
Last Quarter
Oct 23
New

Today's Extremes

State Highs State Lows

Community

WunderPhotos

Upload Photos

1,757,952 photos uploaded!

Nearby

Air Quality

  Air Quality AQ Index Pollutant
Wednesday Good
PM2.5
Thursday Good
PM2.5
Friday Good
PM2.5
Saturday Good
PM2.5

Snow Depth

Station Depth Elevation
Harts Pass 0 in 6500 ft
Olallie Meadows 0 in 3700 ft
Sourdough Gulch 0 in 4000 ft
Lone Pine 0 in 3800 ft
Sasse Ridge 0 in 4200 ft

Earthquake Activity

City Distance Mag. Time & Date
No recent earthquake activity has been reported nearby.
Minimum magnitude displayed is 2.5.

Coastal Water Temperatures

Place Temperature
Port Townsend, WA 52.0 °F
Seattle, WA 55.9 °F
Friday Harbor, WA 51.1 °F
Tacoma, WA 55.0 °F

Nearby Weather Stations